createdAt,value
2022-12-27T00:01:33.806Z,23.58
2022-12-27T00:04:00.859Z,18.95
2022-12-27T00:06:28.703Z,18.83
2022-12-27T00:08:56.629Z,22.52
2022-12-27T00:11:26.332Z,18.00
2022-12-27T00:13:53.264Z,20.42
2022-12-27T00:16:21.336Z,20.80
2022-12-27T00:18:49.664Z,22.52
2022-12-27T00:21:17.601Z,23.00
2022-12-27T00:23:51.831Z,20.98
2022-12-27T00:26:24.679Z,24.02
2022-12-27T00:28:51.748Z,35.08
2022-12-27T00:31:21.504Z,30.55
2022-12-27T00:33:51.350Z,29.88
2022-12-27T00:36:20.797Z,29.38
2022-12-27T00:38:48.684Z,24.15
2022-12-27T00:41:16.302Z,23.00
2022-12-27T00:43:43.370Z,23.48
2022-12-27T00:46:11.385Z,27.27
2022-12-27T00:48:38.935Z,26.20
2022-12-27T00:51:18.106Z,30.88
2022-12-27T00:53:45.186Z,23.63
2022-12-27T00:56:19.921Z,22.70
2022-12-27T00:58:46.838Z,23.30
2022-12-27T01:01:20.162Z,26.25
2022-12-27T01:03:48.112Z,21.98
2022-12-27T01:06:18.075Z,21.88
2022-12-27T01:08:45.490Z,25.75
2022-12-27T01:11:13.433Z,23.13
2022-12-27T01:13:41.066Z,25.45
2022-12-27T01:16:21.095Z,19.88
2022-12-27T01:18:49.025Z,25.30
2022-12-27T01:21:19.819Z,24.77
2022-12-27T01:23:47.131Z,23.02
2022-12-27T01:26:17.966Z,23.30
2022-12-27T01:28:45.771Z,23.52
2022-12-27T01:31:16.907Z,27.25
2022-12-27T01:33:43.828Z,20.73
2022-12-27T01:36:13.129Z,28.77
2022-12-27T01:38:42.921Z,25.60
2022-12-27T01:41:49.974Z,29.50
2022-12-27T01:44:35.306Z,27.85
2022-12-27T01:47:04.634Z,38.03
2022-12-27T01:49:32.153Z,30.00
2022-12-27T01:51:59.130Z,26.50
2022-12-27T01:54:26.121Z,38.30
2022-12-27T01:56:55.827Z,31.98
2022-12-27T01:59:22.954Z,25.58
2022-12-27T02:01:50.883Z,30.25
2022-12-27T02:04:24.256Z,32.13
2022-12-27T02:06:52.146Z,29.58
2022-12-27T02:09:40.958Z,28.65
2022-12-27T02:12:10.275Z,33.17
2022-12-27T02:14:45.865Z,25.65
2022-12-27T02:17:17.516Z,35.78
2022-12-27T02:19:57.531Z,28.65
2022-12-27T02:23:01.282Z,34.30
2022-12-27T02:25:52.725Z,27.52
2022-12-27T02:29:02.485Z,36.47
2022-12-27T02:31:29.340Z,29.48
2022-12-27T02:33:58.757Z,29.13
2022-12-27T02:36:30.830Z,30.92
2022-12-27T02:39:01.713Z,38.80
2022-12-27T02:41:50.585Z,27.05
2022-12-27T02:44:38.044Z,25.42
2022-12-27T02:47:36.719Z,24.90
2022-12-27T02:50:22.895Z,22.23
2022-12-27T02:53:07.007Z,22.10
2022-12-27T02:56:10.876Z,23.35
2022-12-27T02:58:58.733Z,26.80
2022-12-27T03:01:55.864Z,21.05
2022-12-27T03:04:22.728Z,20.52
2022-12-27T03:07:31.853Z,20.95
2022-12-27T03:10:51.317Z,20.33
2022-12-27T03:13:53.099Z,23.00
2022-12-27T03:16:27.894Z,19.92
2022-12-27T03:19:12.980Z,22.77
2022-12-27T03:22:07.799Z,25.80
2022-12-27T03:24:58.484Z,20.73
2022-12-27T03:27:32.222Z,23.20
2022-12-27T03:30:21.251Z,22.60
2022-12-27T03:33:11.908Z,23.92
2022-12-27T03:36:28.037Z,24.02
2022-12-27T03:39:13.260Z,24.60
2022-12-27T03:42:04.756Z,21.17
2022-12-27T03:44:31.759Z,25.70
2022-12-27T03:47:10.247Z,23.63
2022-12-27T03:50:16.242Z,26.77
2022-12-27T03:52:49.226Z,24.17
2022-12-27T03:55:17.673Z,22.17
2022-12-27T03:57:44.931Z,25.65
2022-12-27T04:00:12.700Z,22.38
2022-12-27T04:02:43.688Z,24.40
2022-12-27T04:05:12.007Z,25.08
2022-12-27T04:07:38.888Z,26.55
2022-12-27T04:10:24.542Z,26.67
2022-12-27T04:13:10.157Z,25.15
2022-12-27T04:15:55.910Z,28.60
2022-12-27T04:18:41.413Z,18.52
2022-12-27T04:21:27.882Z,19.65
2022-12-27T04:24:13.283Z,20.85
2022-12-27T04:26:58.829Z,25.15
2022-12-27T04:29:44.457Z,20.92
2022-12-27T04:32:29.949Z,20.50
2022-12-27T04:34:56.824Z,19.70
2022-12-27T04:37:23.660Z,22.45
2022-12-27T04:40:09.371Z,22.50
2022-12-27T04:42:54.664Z,22.95
2022-12-27T04:45:41.458Z,19.98
2022-12-27T04:48:34.886Z,24.00
2022-12-27T04:51:20.446Z,29.55
2022-12-27T04:54:05.968Z,22.80
2022-12-27T04:56:32.836Z,23.00
2022-12-27T04:59:18.282Z,20.38
2022-12-27T05:02:03.546Z,19.30
2022-12-27T05:04:33.048Z,18.27
2022-12-27T05:07:20.536Z,21.67
2022-12-27T05:10:05.876Z,20.35
2022-12-27T05:12:51.341Z,17.27
2022-12-27T05:15:19.141Z,23.75
2022-12-27T05:17:46.006Z,26.17
2022-12-27T05:20:12.928Z,22.85
2022-12-27T05:22:58.423Z,24.38
2022-12-27T05:25:38.652Z,23.25
2022-12-27T05:28:08.426Z,21.98
2022-12-27T05:30:41.335Z,19.92
2022-12-27T05:33:08.935Z,21.77
2022-12-27T05:35:36.286Z,23.98
2022-12-27T05:38:03.820Z,23.30
2022-12-27T05:40:31.420Z,26.67
2022-12-27T05:43:00.393Z,24.83
2022-12-27T05:45:28.485Z,21.75
2022-12-27T05:47:55.585Z,19.58
2022-12-27T05:50:22.696Z,15.60
2022-12-27T05:52:50.599Z,18.65
2022-12-27T05:55:17.726Z,18.10
2022-12-27T05:57:44.628Z,17.48
2022-12-27T06:00:12.723Z,20.52
2022-12-27T06:02:42.408Z,17.55
2022-12-27T06:05:10.847Z,25.42
2022-12-27T06:07:38.912Z,26.38
2022-12-27T06:10:07.626Z,21.50
2022-12-27T06:12:34.701Z,20.50
2022-12-27T06:15:01.842Z,21.70
2022-12-27T06:17:28.809Z,19.70
2022-12-27T06:19:57.409Z,22.65
2022-12-27T06:22:25.152Z,19.50
2022-12-27T06:24:52.412Z,20.80
2022-12-27T06:27:19.349Z,23.27
2022-12-27T06:29:46.219Z,19.77
2022-12-27T06:32:13.526Z,16.40
2022-12-27T06:34:40.483Z,23.50
2022-12-27T06:37:07.351Z,22.95
2022-12-27T06:39:34.280Z,26.27
2022-12-27T06:42:01.197Z,34.78
2022-12-27T06:44:28.104Z,34.90
2022-12-27T06:46:55.123Z,30.10
2022-12-27T06:49:22.035Z,27.88
2022-12-27T06:51:55.667Z,34.33
2022-12-27T06:54:26.251Z,33.08
2022-12-27T06:56:53.099Z,36.42
2022-12-27T06:59:19.982Z,26.83
2022-12-27T07:01:46.942Z,30.23
2022-12-27T07:04:13.890Z,25.20
2022-12-27T07:06:40.867Z,28.42
2022-12-27T07:09:07.961Z,21.80
2022-12-27T07:11:37.079Z,29.60
2022-12-27T07:14:04.673Z,25.20
2022-12-27T07:16:31.986Z,25.08
2022-12-27T07:18:59.692Z,20.73
2022-12-27T07:21:29.141Z,24.50
2022-12-27T07:23:56.661Z,24.95
2022-12-27T07:26:30.267Z,33.78
2022-12-27T07:28:59.737Z,29.95
2022-12-27T07:31:30.943Z,22.77
2022-12-27T07:34:00.131Z,22.15
2022-12-27T07:36:30.217Z,21.73
2022-12-27T07:38:57.149Z,23.67
2022-12-27T07:41:25.537Z,18.48
2022-12-27T07:43:53.276Z,17.08
2022-12-27T07:46:22.680Z,14.77
2022-12-27T07:48:50.381Z,18.40
2022-12-27T07:51:18.992Z,16.95
2022-12-27T07:53:48.824Z,19.90
2022-12-27T07:56:25.419Z,23.48
2022-12-27T07:58:54.495Z,21.02
2022-12-27T08:01:23.292Z,20.33
2022-12-27T08:03:50.794Z,13.77
2022-12-27T08:06:23.394Z,11.07
2022-12-27T08:08:51.734Z,9.43
2022-12-27T08:11:19.686Z,18.65
2022-12-27T08:13:47.031Z,14.02
2022-12-27T08:16:20.974Z,21.58
2022-12-27T08:18:48.487Z,10.63
2022-12-27T08:21:15.801Z,9.63
2022-12-27T08:23:43.001Z,11.00
2022-12-27T08:26:10.761Z,6.28
2022-12-27T08:28:38.179Z,5.78
2022-12-27T08:31:09.871Z,6.32
2022-12-27T08:33:37.528Z,7.78
2022-12-27T08:36:22.354Z,6.10
2022-12-27T08:38:54.990Z,4.95
2022-12-27T08:41:22.586Z,5.40
2022-12-27T08:43:49.615Z,6.80
2022-12-27T08:46:16.711Z,6.28
2022-12-27T08:48:43.623Z,6.10
2022-12-27T08:51:13.823Z,6.10
2022-12-27T08:53:44.058Z,9.00
2022-12-27T08:56:11.158Z,10.25
2022-12-27T08:58:38.067Z,13.48
2022-12-27T09:01:09.414Z,20.50
2022-12-27T09:03:37.313Z,21.70
2022-12-27T09:06:12.151Z,19.15
2022-12-27T09:08:39.336Z,17.27
2022-12-27T09:11:13.863Z,13.98
2022-12-27T09:13:41.452Z,19.10
2022-12-27T09:16:11.169Z,16.65
2022-12-27T09:18:39.278Z,20.23
2022-12-27T09:21:12.371Z,23.25
2022-12-27T09:23:41.871Z,21.13
2022-12-27T09:26:14.386Z,24.25
2022-12-27T09:28:42.062Z,26.50
2022-12-27T09:31:10.704Z,24.77
2022-12-27T09:33:38.311Z,21.10
2022-12-27T09:36:09.852Z,17.55
2022-12-27T09:38:36.959Z,18.60
2022-12-27T09:42:34.214Z,17.35
2022-12-27T09:44:30.231Z,16.73
2022-12-27T09:46:59.195Z,16.02
2022-12-27T09:49:52.640Z,16.27
2022-12-27T09:52:26.838Z,17.58
2022-12-27T09:55:05.348Z,18.83
2022-12-27T09:57:42.409Z,14.52
2022-12-27T10:00:34.730Z,16.00
2022-12-27T10:03:06.960Z,19.33
2022-12-27T10:05:37.360Z,13.70
2022-12-27T10:08:07.176Z,10.48
2022-12-27T10:10:38.434Z,12.98
2022-12-27T10:13:37.672Z,13.55
2022-12-27T10:16:13.799Z,13.30
2022-12-27T10:18:59.203Z,5.07
2022-12-27T10:21:30.105Z,4.80
2022-12-27T10:24:20.928Z,6.30
2022-12-27T10:26:48.031Z,6.28
2022-12-27T10:29:23.054Z,5.15
2022-12-27T10:31:50.744Z,8.23
2022-12-27T10:34:24.757Z,6.90
2022-12-27T10:36:53.124Z,10.95
2022-12-27T10:39:30.110Z,8.55
2022-12-27T10:42:19.837Z,9.10
2022-12-27T10:44:46.720Z,10.35
2022-12-27T10:47:13.957Z,9.93
2022-12-27T10:49:45.803Z,7.95
2022-12-27T10:52:23.919Z,9.20
2022-12-27T10:54:55.602Z,7.90
2022-12-27T10:57:29.856Z,7.15
2022-12-27T11:00:19.682Z,9.45
2022-12-27T11:02:55.131Z,10.13
2022-12-27T11:05:26.913Z,6.57
2022-12-27T11:07:54.318Z,8.90
2022-12-27T11:10:27.309Z,11.15
2022-12-27T11:13:03.766Z,15.27
2022-12-27T11:15:34.985Z,7.22
2022-12-27T11:18:10.050Z,10.77
2022-12-27T11:20:39.601Z,9.48
2022-12-27T11:23:09.455Z,10.93
2022-12-27T11:25:51.759Z,8.68
2022-12-27T11:28:36.941Z,11.30
2022-12-27T11:31:07.706Z,8.40
2022-12-27T11:33:41.264Z,8.02
2022-12-27T11:36:12.812Z,8.18
2022-12-27T11:38:44.766Z,9.63
2022-12-27T11:41:27.562Z,14.93
2022-12-27T11:44:11.043Z,15.90
2022-12-27T11:46:59.257Z,16.15
2022-12-27T11:49:36.392Z,11.65
2022-12-27T11:52:12.052Z,13.50
2022-12-27T11:54:44.911Z,15.50
2022-12-27T11:57:15.171Z,15.15
2022-12-27T11:59:54.416Z,14.15
2022-12-27T12:02:27.362Z,17.70
2022-12-27T12:05:33.352Z,11.02
2022-12-27T12:08:48.753Z,16.73
2022-12-27T12:12:01.288Z,14.30
2022-12-27T12:14:54.701Z,14.73
2022-12-27T12:17:40.231Z,2.60
2022-12-27T12:20:22.281Z,8.10
2022-12-27T12:23:13.114Z,4.30
2022-12-27T12:26:01.754Z,16.02
2022-12-27T12:29:00.303Z,4.47
2022-12-27T12:32:00.647Z,5.15
2022-12-27T12:34:36.893Z,3.70
2022-12-27T12:37:35.591Z,5.75
2022-12-27T12:40:21.227Z,35.13
2022-12-27T12:43:13.895Z,2.53
2022-12-27T12:45:49.766Z,11.95
2022-12-27T12:48:41.610Z,1.92
2022-12-27T12:51:18.781Z,5.97
2022-12-27T12:53:57.860Z,3.90
2022-12-27T12:56:48.699Z,3.80
2022-12-27T12:59:45.944Z,6.53
2022-12-27T13:02:19.092Z,2.45
2022-12-27T13:05:16.654Z,1.98
2022-12-27T13:08:11.288Z,3.95
2022-12-27T13:10:38.167Z,3.08
2022-12-27T13:13:04.976Z,2.05
2022-12-27T13:15:37.926Z,3.92
2022-12-27T13:18:31.869Z,8.70
2022-12-27T13:21:42.111Z,6.78
2022-12-27T13:24:45.915Z,2.83
2022-12-27T13:27:35.600Z,2.40
2022-12-27T13:30:14.637Z,5.47
2022-12-27T13:33:33.921Z,2.42
2022-12-27T13:36:19.100Z,3.45
2022-12-27T13:39:15.055Z,6.22
2022-12-27T13:42:00.404Z,5.13
2022-12-27T13:45:11.179Z,3.88
2022-12-27T13:48:05.413Z,3.85
2022-12-27T13:50:38.070Z,4.35
2022-12-27T13:53:17.212Z,4.32
2022-12-27T13:55:55.675Z,5.35
2022-12-27T13:58:28.331Z,12.38
2022-12-27T14:01:16.842Z,7.60
2022-12-27T14:04:06.407Z,4.78
2022-12-27T14:06:36.206Z,3.95
2022-12-27T14:09:21.729Z,3.25
2022-12-27T14:12:05.144Z,5.95
2022-12-27T14:14:37.182Z,3.28
2022-12-27T14:17:16.961Z,3.15
2022-12-27T14:19:58.773Z,6.60
2022-12-27T14:22:40.888Z,3.22
2022-12-27T14:25:39.922Z,3.13
2022-12-27T14:28:45.686Z,3.67
2022-12-27T14:31:45.385Z,3.95
2022-12-27T14:34:49.948Z,3.55
2022-12-27T14:37:57.477Z,3.70
2022-12-27T14:41:01.625Z,3.45
2022-12-27T14:43:31.168Z,3.28
2022-12-27T14:46:24.222Z,4.80
2022-12-27T14:49:07.296Z,3.80
2022-12-27T14:52:08.727Z,3.58
2022-12-27T14:55:06.785Z,5.13
2022-12-27T14:58:06.419Z,5.32
2022-12-27T15:00:57.540Z,6.80
2022-12-27T15:03:49.157Z,9.18
2022-12-27T15:06:25.212Z,5.90
2022-12-27T15:09:07.359Z,4.18
2022-12-27T15:12:06.584Z,5.68
2022-12-27T15:15:04.177Z,7.90
2022-12-27T15:17:31.000Z,7.35
2022-12-27T15:20:25.159Z,5.78
2022-12-27T15:23:13.442Z,5.50
2022-12-27T15:26:10.299Z,6.60
2022-12-27T15:28:43.087Z,7.07
2022-12-27T15:31:21.442Z,6.80
2022-12-27T15:34:14.461Z,6.25
2022-12-27T15:36:44.739Z,6.60
2022-12-27T15:39:34.900Z,9.15
2022-12-27T15:42:44.809Z,9.93
2022-12-27T15:45:36.604Z,15.55
2022-12-27T15:48:30.119Z,9.80
2022-12-27T15:51:20.344Z,7.20
2022-12-27T15:54:02.151Z,10.38
2022-12-27T15:56:45.672Z,10.85
2022-12-27T15:59:35.438Z,10.23
2022-12-27T16:02:17.849Z,10.18
2022-12-27T16:04:50.499Z,7.63
2022-12-27T16:07:55.394Z,11.27
2022-12-27T16:10:35.316Z,8.82
2022-12-27T16:13:05.078Z,8.07
2022-12-27T16:15:55.790Z,11.25
2022-12-27T16:18:22.683Z,10.65
2022-12-27T16:20:58.669Z,12.73
2022-12-27T16:23:29.690Z,12.60
2022-12-27T16:26:15.636Z,10.73
2022-12-27T16:28:55.473Z,8.63
2022-12-27T16:31:41.854Z,10.00
2022-12-27T16:34:31.782Z,8.00
2022-12-27T16:37:00.200Z,12.05
2022-12-27T16:39:38.953Z,10.38
2022-12-27T16:42:07.888Z,11.05
2022-12-27T16:44:54.189Z,12.93
2022-12-27T16:47:30.148Z,11.73
2022-12-27T16:50:18.232Z,13.52
2022-12-27T16:53:13.314Z,16.65
2022-12-27T16:55:53.802Z,14.45
2022-12-27T16:58:26.820Z,13.68
2022-12-27T17:00:56.875Z,9.80
2022-12-27T17:03:32.346Z,11.02
2022-12-27T17:09:09.707Z,14.38
2022-12-27T17:11:51.950Z,14.32
2022-12-27T17:14:21.887Z,13.93
2022-12-27T17:16:51.981Z,15.10
2022-12-27T17:19:32.982Z,13.85
2022-12-27T17:22:06.551Z,14.63
2022-12-27T17:24:34.380Z,12.27
2022-12-27T17:27:25.463Z,11.32
2022-12-27T17:30:36.867Z,12.50
2022-12-27T17:33:09.315Z,12.30
2022-12-27T17:35:42.958Z,10.38
2022-12-27T17:38:16.046Z,10.13
2022-12-27T17:41:01.222Z,12.68
2022-12-27T17:44:25.128Z,10.90
2022-12-27T17:47:02.448Z,12.40
2022-12-27T17:49:31.316Z,10.25
2022-12-27T17:52:19.241Z,13.93
2022-12-27T17:55:04.731Z,9.77
2022-12-27T17:57:50.941Z,12.05
2022-12-27T18:00:26.864Z,16.67
2022-12-27T18:02:56.917Z,15.50
2022-12-27T18:05:29.620Z,14.30
2022-12-27T18:08:07.367Z,14.65
2022-12-27T18:10:36.748Z,11.98
2022-12-27T18:13:07.165Z,8.57
2022-12-27T18:15:37.397Z,13.70
2022-12-27T18:18:07.235Z,8.80
2022-12-27T18:20:40.635Z,7.80
2022-12-27T18:23:12.748Z,13.10
2022-12-27T18:25:50.048Z,10.90
2022-12-27T18:28:20.337Z,12.75
2022-12-27T18:31:22.299Z,8.80
2022-12-27T18:33:55.248Z,10.48
2022-12-27T18:36:34.145Z,10.60
2022-12-27T18:39:13.525Z,12.18
2022-12-27T18:41:48.845Z,10.50
2022-12-27T18:46:57.123Z,13.65
2022-12-27T18:49:30.939Z,10.40
2022-12-27T18:51:58.587Z,12.05
2022-12-27T18:54:28.245Z,10.88
2022-12-27T18:56:59.714Z,11.55
2022-12-27T18:59:36.684Z,9.50
2022-12-27T19:02:33.014Z,9.13
2022-12-27T19:05:27.448Z,6.82
2022-12-27T19:08:24.536Z,9.13
2022-12-27T19:10:52.166Z,8.57
2022-12-27T19:13:26.522Z,5.95
2022-12-27T19:15:55.292Z,7.23
2022-12-27T19:18:29.414Z,7.72
2022-12-27T19:21:01.565Z,6.70
2022-12-27T19:23:39.846Z,6.35
2022-12-27T19:26:15.770Z,9.70
2022-12-27T19:28:58.751Z,9.10
2022-12-27T19:31:25.899Z,6.75
2022-12-27T19:34:06.808Z,7.32
2022-12-27T19:36:38.248Z,6.57
2022-12-27T19:39:18.320Z,8.60
2022-12-27T19:41:46.203Z,7.10
2022-12-27T19:44:13.171Z,7.57
2022-12-27T19:46:40.118Z,7.22
2022-12-27T19:49:40.219Z,6.50
2022-12-27T19:51:57.305Z,7.43
2022-12-27T19:54:27.493Z,8.45
2022-12-27T19:56:55.763Z,10.48
2022-12-27T19:59:24.365Z,9.55
2022-12-27T20:01:52.809Z,10.95
2022-12-27T20:04:19.820Z,9.30
2022-12-27T20:06:49.062Z,6.78
2022-12-27T20:09:18.791Z,10.60
2022-12-27T20:11:46.916Z,8.35
2022-12-27T20:14:14.715Z,8.32
2022-12-27T20:16:41.820Z,6.72
2022-12-27T20:19:12.476Z,7.43
2022-12-27T20:21:40.803Z,9.43
2022-12-27T20:24:11.343Z,14.85
2022-12-27T20:26:38.858Z,11.07
2022-12-27T20:29:05.919Z,11.88
2022-12-27T20:31:32.994Z,8.60
2022-12-27T20:34:00.143Z,9.48
2022-12-27T20:36:27.089Z,8.27
2022-12-27T20:38:53.951Z,7.38
2022-12-27T20:41:21.886Z,6.28
2022-12-27T20:43:54.277Z,5.15
2022-12-27T20:46:21.301Z,3.85
2022-12-27T20:48:48.462Z,4.20
2022-12-27T20:51:18.720Z,4.00
2022-12-27T20:53:48.664Z,4.03
2022-12-27T20:56:16.455Z,5.50
2022-12-27T20:58:43.658Z,5.18
2022-12-27T21:01:22.301Z,4.10
2022-12-27T21:03:49.649Z,6.32
2022-12-27T21:06:22.171Z,3.85
2022-12-27T21:08:56.375Z,4.25
2022-12-27T21:11:27.255Z,4.63
2022-12-27T21:13:55.317Z,3.88
2022-12-27T21:16:26.504Z,5.32
2022-12-27T21:18:53.985Z,4.25
2022-12-27T21:21:27.654Z,6.40
2022-12-27T21:23:55.592Z,3.63
2022-12-27T21:26:28.120Z,6.72
2022-12-27T21:28:56.040Z,5.78
2022-12-27T21:31:23.482Z,9.10
2022-12-27T21:33:51.085Z,6.68
2022-12-27T21:36:23.207Z,4.18
2022-12-27T21:38:50.614Z,3.80
2022-12-27T21:41:21.050Z,7.88
2022-12-27T21:43:49.222Z,4.13
2022-12-27T21:46:17.541Z,3.95
2022-12-27T21:48:44.635Z,6.40
2022-12-27T21:51:14.427Z,6.03
2022-12-27T21:53:42.423Z,5.28
2022-12-27T21:56:11.636Z,8.18
2022-12-27T21:58:40.217Z,4.72
2022-12-27T22:01:10.752Z,5.13
2022-12-27T22:03:39.922Z,4.25
2022-12-27T22:06:17.333Z,11.80
2022-12-27T22:08:46.561Z,4.28
2022-12-27T22:11:13.958Z,4.28
2022-12-27T22:13:42.058Z,7.47
2022-12-27T22:16:14.681Z,8.00
2022-12-27T22:18:42.957Z,6.05
2022-12-27T22:21:12.505Z,5.45
2022-12-27T22:23:42.545Z,3.92
2022-12-27T22:26:15.097Z,5.03
2022-12-27T22:28:42.399Z,3.25
2022-12-27T22:31:11.952Z,4.20
2022-12-27T22:33:39.222Z,6.47
2022-12-27T22:36:11.304Z,3.78
2022-12-27T22:38:38.485Z,5.47
2022-12-27T22:41:12.695Z,9.27
2022-12-27T22:43:41.412Z,6.10
2022-12-27T22:46:10.403Z,8.13
2022-12-27T22:48:37.937Z,4.85
2022-12-27T22:51:08.740Z,4.20
2022-12-27T22:53:35.772Z,5.00
2022-12-27T22:56:02.708Z,4.43
2022-12-27T22:58:32.668Z,4.13
2022-12-27T23:00:59.853Z,4.55
2022-12-27T23:03:26.853Z,6.97
2022-12-27T23:05:58.492Z,7.63
2022-12-27T23:08:26.186Z,5.82
2022-12-27T23:10:53.175Z,5.25
2022-12-27T23:13:22.394Z,4.57
2022-12-27T23:16:00.049Z,7.53
2022-12-27T23:18:28.188Z,4.72
2022-12-27T23:21:21.632Z,9.30
2022-12-27T23:23:43.314Z,5.97
2022-12-27T23:26:14.657Z,8.05
2022-12-27T23:28:43.848Z,9.00
2022-12-27T23:31:12.264Z,7.20
2022-12-27T23:33:40.986Z,5.40
2022-12-27T23:36:08.487Z,5.40
2022-12-27T23:38:36.688Z,6.30
2022-12-27T23:41:05.999Z,6.07
2022-12-27T23:43:54.839Z,6.22
2022-12-27T23:46:27.576Z,4.80
2022-12-27T23:48:57.330Z,7.03
2022-12-27T23:51:24.951Z,7.70
2022-12-27T23:53:52.636Z,7.35
2022-12-27T23:56:23.587Z,11.07
2022-12-27T23:58:52.531Z,8.15
